createdAt,value
2018-09-22T00:01:07.808Z,11.00
2018-09-22T00:06:11.387Z,11.00
2018-09-22T00:11:17.130Z,11.00
2018-09-22T00:16:20.730Z,11.20
2018-09-22T00:21:24.347Z,11.20
2018-09-22T00:26:28.222Z,11.20
2018-09-22T00:31:31.786Z,11.00
2018-09-22T00:36:35.443Z,11.00
2018-09-22T00:41:39.154Z,11.00
2018-09-22T00:46:42.831Z,11.00
2018-09-22T00:51:46.490Z,11.00
2018-09-22T00:56:50.090Z,11.00
2018-09-22T01:01:53.654Z,10.90
2018-09-22T01:06:57.438Z,10.80
2018-09-22T01:12:00.993Z,11.00
2018-09-22T01:17:04.747Z,10.90
2018-09-22T01:22:08.301Z,10.80
2018-09-22T01:27:11.859Z,10.80
2018-09-22T01:32:15.586Z,10.80
2018-09-22T01:37:19.170Z,10.90
2018-09-22T01:42:23.880Z,10.70
2018-09-22T01:47:27.458Z,10.60
2018-09-22T01:52:33.301Z,10.60
2018-09-22T01:57:36.942Z,10.60
2018-09-22T02:02:40.669Z,10.50
2018-09-22T02:07:44.284Z,10.60
2018-09-22T02:12:47.870Z,10.60
2018-09-22T02:17:51.558Z,10.40
2018-09-22T02:22:55.383Z,10.40
2018-09-22T02:27:58.970Z,10.40
2018-09-22T02:33:03.684Z,10.40
2018-09-22T02:38:07.247Z,10.60
2018-09-22T02:43:10.818Z,10.60
2018-09-22T02:48:14.499Z,10.60
2018-09-22T02:53:18.122Z,10.60
2018-09-22T02:58:21.859Z,10.60
2018-09-22T03:03:25.410Z,10.50
2018-09-22T03:08:29.009Z,10.30
2018-09-22T03:13:32.567Z,10.60
2018-09-22T03:18:36.187Z,10.60
2018-09-22T03:23:40.031Z,10.60
2018-09-22T03:28:43.561Z,10.60
2018-09-22T03:33:47.124Z,10.40
2018-09-22T03:38:50.689Z,10.30
2018-09-22T03:43:54.364Z,10.40
2018-09-22T03:48:57.907Z,10.30
2018-09-22T03:54:01.579Z,10.30
2018-09-22T03:59:05.162Z,10.30
2018-09-22T04:04:08.778Z,10.20
2018-09-22T04:09:12.429Z,10.30
2018-09-22T04:14:15.975Z,10.50
2018-09-22T04:19:19.565Z,10.40
2018-09-22T04:24:23.286Z,10.50
2018-09-22T04:29:26.846Z,10.50
2018-09-22T04:34:30.389Z,10.30
2018-09-22T04:39:36.054Z,10.30
2018-09-22T04:44:39.622Z,10.40
2018-09-22T04:49:43.214Z,10.60
2018-09-22T04:54:46.850Z,10.60
2018-09-22T04:59:50.407Z,10.70
2018-09-22T05:04:54.092Z,10.60
2018-09-22T05:09:57.703Z,10.60
2018-09-22T05:15:01.282Z,10.50
2018-09-22T05:20:05.907Z,10.40
2018-09-22T05:25:09.566Z,10.70
2018-09-22T05:30:13.171Z,10.60
2018-09-22T05:35:16.760Z,10.50
2018-09-22T05:40:20.419Z,10.50
2018-09-22T05:45:23.975Z,10.50
2018-09-22T05:50:27.655Z,10.60
2018-09-22T05:55:31.482Z,10.50
2018-09-22T06:00:38.645Z,10.50
2018-09-22T06:05:43.274Z,10.70
2018-09-22T06:10:46.853Z,10.70
2018-09-22T06:15:50.420Z,10.70
2018-09-22T06:20:55.191Z,11.00
2018-09-22T06:25:58.831Z,11.10
2018-09-22T06:31:02.584Z,11.10
2018-09-22T06:36:06.230Z,11.20
2018-09-22T06:41:09.894Z,11.20
2018-09-22T06:46:13.557Z,11.10
2018-09-22T06:51:17.119Z,11.40
2018-09-22T06:56:20.727Z,11.80
2018-09-22T07:01:24.277Z,11.60
2018-09-22T07:06:28.294Z,11.60
2018-09-22T07:11:32.882Z,11.60
2018-09-22T07:16:38.631Z,11.70
2018-09-22T07:21:47.394Z,11.90
2018-09-22T07:26:51.019Z,11.90
2018-09-22T07:31:54.881Z,12.10
2018-09-22T07:36:59.695Z,12.20
2018-09-22T07:42:03.349Z,12.20
2018-09-22T07:47:07.297Z,12.40
2018-09-22T07:52:11.063Z,12.80
2018-09-22T07:57:14.889Z,12.80
2018-09-22T08:02:18.590Z,13.10
2018-09-22T08:07:23.305Z,13.40
2018-09-22T08:12:27.031Z,13.40
2018-09-22T08:17:30.791Z,14.10
2018-09-22T08:22:34.419Z,14.90
2018-09-22T08:27:40.107Z,15.10
2018-09-22T08:32:45.615Z,14.90
2018-09-22T08:37:50.309Z,15.20
2018-09-22T08:42:55.143Z,15.10
2018-09-22T08:48:02.189Z,15.60
2018-09-22T08:53:07.823Z,15.40
2018-09-22T08:58:11.986Z,15.40
2018-09-22T09:03:16.037Z,16.20
2018-09-22T09:08:21.204Z,16.00
2018-09-22T09:13:25.034Z,16.40
2018-09-22T09:18:28.711Z,16.50
2018-09-22T09:23:32.394Z,16.60
2018-09-22T09:28:39.207Z,16.80
2018-09-22T09:33:48.262Z,16.70
2018-09-22T09:38:58.644Z,16.90
2018-09-22T09:44:02.584Z,18.20
2018-09-22T09:49:07.618Z,17.90
2018-09-22T09:54:11.729Z,17.40
2018-09-22T09:59:16.228Z,17.90
2018-09-22T10:04:23.538Z,17.80
2018-09-22T10:09:27.162Z,17.70
2018-09-22T10:14:31.552Z,17.40
2018-09-22T10:19:35.431Z,16.60
2018-09-22T10:24:38.973Z,16.40
2018-09-22T10:29:42.515Z,16.00
2018-09-22T10:34:46.126Z,16.00
2018-09-22T10:39:49.726Z,16.20
2018-09-22T10:44:53.266Z,16.40
2018-09-22T10:49:56.820Z,16.70
2018-09-22T10:55:00.643Z,16.60
2018-09-22T11:00:04.374Z,16.70
2018-09-22T11:05:08.096Z,16.70
2018-09-22T11:10:11.850Z,16.90
2018-09-22T11:15:15.468Z,17.80
2018-09-22T11:20:19.073Z,17.80
2018-09-22T11:25:22.693Z,18.00
2018-09-22T11:30:26.441Z,18.10
2018-09-22T11:35:30.442Z,18.60
2018-09-22T11:40:34.068Z,18.70
2018-09-22T11:45:38.900Z,18.70
2018-09-22T11:50:42.546Z,18.20
2018-09-22T11:55:46.135Z,17.80
2018-09-22T12:00:49.746Z,18.20
2018-09-22T12:05:53.672Z,18.40
2018-09-22T12:10:57.315Z,18.00
2018-09-22T12:16:03.515Z,18.10
2018-09-22T12:21:07.635Z,18.20
2018-09-22T12:26:11.281Z,17.80
2018-09-22T12:31:14.859Z,17.70
2018-09-22T12:36:18.422Z,17.50
2018-09-22T12:41:25.794Z,17.50
2018-09-22T12:46:29.896Z,17.50
2018-09-22T12:51:33.619Z,17.10
2018-09-22T12:56:37.520Z,16.70
2018-09-22T13:01:46.770Z,16.60
2018-09-22T13:06:50.344Z,16.90
2018-09-22T13:11:58.573Z,16.90
2018-09-22T13:17:03.337Z,16.90
2018-09-22T13:22:07.685Z,17.00
2018-09-22T13:27:11.487Z,16.90
2018-09-22T13:32:15.294Z,17.00
2018-09-22T13:37:19.004Z,17.00
2018-09-22T13:42:23.769Z,16.90
2018-09-22T13:47:30.951Z,17.00
2018-09-22T13:52:34.855Z,16.70
2018-09-22T13:57:38.952Z,16.50
2018-09-22T14:02:43.845Z,16.40
2018-09-22T14:07:48.687Z,16.50
2018-09-22T14:12:52.498Z,16.50
2018-09-22T14:17:59.113Z,16.50
2018-09-22T14:23:02.886Z,16.60
2018-09-22T14:28:06.919Z,16.60
2018-09-22T14:33:11.291Z,16.50
2018-09-22T14:38:16.405Z,16.60
2018-09-22T14:43:20.163Z,16.70
2018-09-22T14:48:24.792Z,16.80
2018-09-22T14:53:29.535Z,16.80
2018-09-22T14:58:35.472Z,16.80
2018-09-22T15:04:27.354Z,16.80
2018-09-22T15:09:31.151Z,16.60
2018-09-22T15:14:37.398Z,16.50
2018-09-22T15:19:41.443Z,16.30
2018-09-22T15:24:45.280Z,16.40
2018-09-22T15:29:49.033Z,16.20
2018-09-22T15:34:52.699Z,16.30
2018-09-22T15:39:56.696Z,16.30
2018-09-22T15:45:00.726Z,16.10
2018-09-22T15:50:04.558Z,16.00
2018-09-22T15:55:08.473Z,15.90
2018-09-22T16:00:12.183Z,15.80
2018-09-22T16:05:15.983Z,15.50
2018-09-22T16:10:19.935Z,15.40
2018-09-22T16:15:23.725Z,15.40
2018-09-22T16:20:29.434Z,15.70
2018-09-22T16:25:33.193Z,16.20
2018-09-22T16:30:36.854Z,16.00
2018-09-22T16:35:40.467Z,16.00
2018-09-22T16:40:45.016Z,15.80
2018-09-22T16:45:48.752Z,15.80
2018-09-22T16:50:53.521Z,15.70
2018-09-22T16:55:57.210Z,15.40
2018-09-22T17:01:01.155Z,15.50
2018-09-22T17:06:05.702Z,15.20
2018-09-22T17:11:09.486Z,14.90
2018-09-22T17:16:13.168Z,14.30
2018-09-22T17:21:17.426Z,13.90
2018-09-22T17:26:21.122Z,13.50
2018-09-22T17:31:25.366Z,13.30
2018-09-22T17:36:29.056Z,13.10
2018-09-22T17:41:33.856Z,13.00
2018-09-22T17:46:39.668Z,12.90
2018-09-22T17:51:44.406Z,12.90
2018-09-22T17:56:50.082Z,12.80
2018-09-22T18:01:54.091Z,12.80
2018-09-22T18:06:58.191Z,12.70
2018-09-22T18:12:02.004Z,12.80
2018-09-22T18:17:05.984Z,12.70
2018-09-22T18:22:10.916Z,12.90
2018-09-22T18:27:15.638Z,12.70
2018-09-22T18:32:19.257Z,12.60
2018-09-22T18:37:22.877Z,12.50
2018-09-22T18:42:27.303Z,12.50
2018-09-22T18:47:31.024Z,12.50
2018-09-22T18:52:35.823Z,12.60
2018-09-22T18:57:39.586Z,12.70
2018-09-22T19:02:44.571Z,12.70
2018-09-22T19:07:48.340Z,12.70
2018-09-22T19:12:52.038Z,12.90
2018-09-22T19:17:59.767Z,13.30
2018-09-22T19:23:08.243Z,13.60
2018-09-22T19:29:20.174Z,13.10
2018-09-22T19:34:27.580Z,12.70
2018-09-22T19:39:45.996Z,12.50
2018-09-22T19:44:59.725Z,12.50
2018-09-22T19:50:10.281Z,12.40
2018-09-22T19:55:14.111Z,12.40
2018-09-22T20:00:17.706Z,12.40
2018-09-22T20:05:23.359Z,12.40
2018-09-22T20:10:27.198Z,12.40
2018-09-22T20:15:30.782Z,12.30
2018-09-22T20:20:34.555Z,12.50
2018-09-22T20:25:38.465Z,12.30
2018-09-22T20:30:42.165Z,12.20
2018-09-22T20:35:46.835Z,12.10
2018-09-22T20:40:50.487Z,12.20
2018-09-22T20:45:55.527Z,12.40
2018-09-22T20:51:00.426Z,12.40
2018-09-22T20:56:04.027Z,12.40
2018-09-22T21:01:07.817Z,12.40
2018-09-22T21:06:12.543Z,12.30
2018-09-22T21:11:16.279Z,12.40
2018-09-22T21:16:21.903Z,12.30
2018-09-22T21:21:25.534Z,12.10
2018-09-22T21:26:29.207Z,12.10
2018-09-22T21:31:32.817Z,12.00
2018-09-22T21:36:36.598Z,12.00
2018-09-22T21:41:41.314Z,11.90
2018-09-22T21:46:48.542Z,12.10
2018-09-22T21:51:52.246Z,12.40
2018-09-22T21:56:55.863Z,12.40
2018-09-22T22:01:59.513Z,12.50
2018-09-22T22:07:03.198Z,12.60
2018-09-22T22:12:07.454Z,12.50
2018-09-22T22:17:11.906Z,12.30
2018-09-22T22:22:19.113Z,11.90
2018-09-22T22:27:23.807Z,11.80
2018-09-22T22:32:27.602Z,11.80
2018-09-22T22:37:32.314Z,11.60
2018-09-22T22:42:41.366Z,11.60
2018-09-22T22:47:44.947Z,11.80
2018-09-22T22:52:48.723Z,11.90
2018-09-22T22:57:53.374Z,12.00
2018-09-22T23:02:57.062Z,12.10
2018-09-22T23:08:01.467Z,12.00
2018-09-22T23:13:05.235Z,12.10
2018-09-22T23:18:09.966Z,12.10
2018-09-22T23:23:13.727Z,12.00
2018-09-22T23:28:17.377Z,11.80
2018-09-22T23:33:22.098Z,11.60
2018-09-22T23:38:25.743Z,11.60
2018-09-22T23:43:29.475Z,11.90
2018-09-22T23:48:33.198Z,11.90
2018-09-22T23:53:36.740Z,12.00
2018-09-22T23:58:40.381Z,11.90
